Time;durP1;ratioP1;P1;durP2;ratioP2;P2;SDS_P1;SDS_P2;PMS_P1;PMS_P2;Temp;Humidity;BMP_temperature;BMP_pressure;BME280_temperature;BME280_humidity;BME280_pressure;Samples;Min_cycle;Max_cycle;Signal;HPM_P1;HPM_P2
2024/01/31 00:01:59;;;;;;;29.30;17.70;;;-1.20;99.90;;;;;;5028809;28;21205;-64
2024/01/31 00:04:24;;;;;;;27.88;18.00;;;-1.20;99.90;;;;;;5028916;28;20033;-64
2024/01/31 00:06:50;;;;;;;31.52;18.85;;;-1.20;99.90;;;;;;5034494;28;20470;-64
2024/01/31 00:09:16;;;;;;;28.90;19.05;;;-1.20;99.90;;;;;;5031394;28;20029;-64
2024/01/31 00:11:42;;;;;;;28.13;16.65;;;-1.20;99.90;;;;;;5030824;28;20751;-64
2024/01/31 00:14:08;;;;;;;31.65;19.45;;;-1.20;99.90;;;;;;5027125;28;20033;-64
2024/01/31 00:16:34;;;;;;;37.67;21.35;;;-1.20;99.90;;;;;;5032851;28;20537;-64
2024/01/31 00:19:01;;;;;;;35.63;21.45;;;-1.30;99.90;;;;;;5035432;28;20064;-64
2024/01/31 00:21:26;;;;;;;33.38;20.45;;;-1.30;99.90;;;;;;5046403;28;20463;-64
2024/01/31 00:23:52;;;;;;;33.88;19.73;;;-1.30;99.90;;;;;;5052632;28;20033;-64
2024/01/31 00:26:17;;;;;;;39.08;22.77;;;-1.30;99.90;;;;;;5054692;28;20456;-64
2024/01/31 00:28:43;;;;;;;46.42;24.17;;;-1.20;99.90;;;;;;5052614;28;20631;-64
2024/01/31 00:31:11;;;;;;;39.85;24.88;;;-1.20;99.90;;;;;;5052537;28;20017;-63
2024/01/31 00:33:38;;;;;;;43.10;26.33;;;-1.20;99.90;;;;;;5045418;28;20037;-64
2024/01/31 00:36:04;;;;;;;41.05;23.13;;;-1.20;99.90;;;;;;5053543;28;20147;-64
2024/01/31 00:38:29;;;;;;;36.10;21.17;;;-1.20;99.90;;;;;;5052388;28;20039;-64
2024/01/31 00:40:55;;;;;;;39.40;23.25;;;-1.20;99.90;;;;;;5052410;28;20409;-64
2024/01/31 00:43:21;;;;;;;28.63;16.70;;;-1.30;99.90;;;;;;5051908;28;20032;-64
2024/01/31 00:45:46;;;;;;;25.98;15.98;;;-1.40;99.90;;;;;;5050485;28;20098;-64
2024/01/31 00:48:12;;;;;;;24.23;14.57;;;-1.40;99.90;;;;;;5047860;28;20074;-64
2024/01/31 00:50:37;;;;;;;21.27;13.43;;;-1.50;99.90;;;;;;5049793;28;20583;-64
2024/01/31 00:53:03;;;;;;;20.83;12.73;;;-1.60;99.90;;;;;;5049328;28;20471;-64
2024/01/31 00:55:29;;;;;;;24.02;13.80;;;-1.60;99.90;;;;;;5052780;28;20397;-64
2024/01/31 00:57:54;;;;;;;18.08;11.77;;;-1.70;99.90;;;;;;5052647;28;20024;-64
2024/01/31 01:00:23;;;;;;;17.15;11.35;;;-1.70;99.90;;;;;;5046786;28;20065;-64
2024/01/31 01:02:51;;;;;;;20.95;13.10;;;-1.70;99.90;;;;;;5051028;28;20112;-64
2024/01/31 01:05:17;;;;;;;20.42;12.75;;;-1.70;99.90;;;;;;5034147;28;20044;-64
2024/01/31 01:07:45;;;;;;;25.15;14.90;;;-1.70;99.90;;;;;;5050060;28;20087;-64
2024/01/31 01:10:14;;;;;;;21.98;14.13;;;-1.70;99.90;;;;;;5052286;28;20037;-64
2024/01/31 01:12:42;;;;;;;25.35;14.75;;;-1.70;99.90;;;;;;5048764;28;20048;-64
2024/01/31 01:15:08;;;;;;;25.02;16.02;;;-1.70;99.90;;;;;;5048422;28;20033;-64
2024/01/31 01:17:35;;;;;;;29.60;16.85;;;-1.70;99.90;;;;;;5047377;28;20032;-64
2024/01/31 01:20:00;;;;;;;28.73;17.10;;;-1.70;99.90;;;;;;5041742;28;20056;-64
2024/01/31 01:22:26;;;;;;;32.67;19.42;;;-1.70;99.90;;;;;;5050806;28;20032;-63
2024/01/31 01:24:52;;;;;;;32.00;19.30;;;-1.60;99.90;;;;;;5046084;28;20749;-63
2024/01/31 01:27:18;;;;;;;27.75;16.92;;;-1.60;99.90;;;;;;5049652;28;20036;-63
2024/01/31 01:29:44;;;;;;;25.25;15.30;;;-1.70;99.90;;;;;;5046338;28;20060;-61
2024/01/31 01:32:10;;;;;;;22.40;14.30;;;-1.70;99.90;;;;;;5047051;28;20158;-63
2024/01/31 01:34:37;;;;;;;18.98;13.00;;;-1.80;99.90;;;;;;5037248;28;20043;-63
2024/01/31 01:37:03;;;;;;;26.55;13.77;;;-1.90;99.90;;;;;;5040790;28;20493;-63
2024/01/31 01:39:28;;;;;;;18.83;12.32;;;-2.00;99.90;;;;;;5045927;28;20063;-63
2024/01/31 01:41:54;;;;;;;18.65;11.75;;;-2.00;99.90;;;;;;5046159;28;20566;-63
2024/01/31 01:44:19;;;;;;;16.90;11.55;;;-2.10;99.90;;;;;;5046511;28;20039;-63
2024/01/31 01:46:46;;;;;;;17.75;10.57;;;-2.10;99.90;;;;;;5042953;28;20020;-63
2024/01/31 01:49:13;;;;;;;18.75;12.00;;;-2.10;99.90;;;;;;5048551;28;20063;-63
2024/01/31 01:51:39;;;;;;;21.42;12.10;;;-2.00;99.90;;;;;;5043830;28;20063;-69
2024/01/31 01:54:06;;;;;;;21.33;12.48;;;-2.00;99.90;;;;;;5040164;28;20028;-67
2024/01/31 01:56:33;;;;;;;23.63;13.27;;;-1.90;99.90;;;;;;5046207;28;20074;-68
2024/01/31 01:59:00;;;;;;;22.85;14.75;;;-1.90;99.90;;;;;;5027306;28;20032;-68
2024/01/31 02:01:27;;;;;;;22.08;13.82;;;-1.80;99.90;;;;;;5044380;28;20025;-68
2024/01/31 02:03:55;;;;;;;19.95;12.43;;;-1.80;99.90;;;;;;5036241;28;20024;-68
2024/01/31 02:06:23;;;;;;;20.17;12.13;;;-1.80;99.90;;;;;;5045605;28;20755;-68
2024/01/31 02:08:49;;;;;;;21.35;12.57;;;-1.80;99.90;;;;;;5045586;28;20106;-68
2024/01/31 02:11:15;;;;;;;19.42;13.18;;;-1.90;99.90;;;;;;5041575;28;20028;-68
2024/01/31 02:13:40;;;;;;;20.25;13.57;;;-1.90;99.90;;;;;;5044833;28;20075;-68
2024/01/31 02:16:06;;;;;;;18.50;11.90;;;-1.90;99.90;;;;;;5040590;28;20036;-69
2024/01/31 02:18:31;;;;;;;18.20;11.57;;;-1.90;99.90;;;;;;5043718;28;20794;-68
2024/01/31 02:20:57;;;;;;;18.70;11.63;;;-1.90;99.90;;;;;;5042839;28;20058;-68
2024/01/31 02:23:23;;;;;;;16.65;11.60;;;-1.80;99.90;;;;;;5039848;28;20040;-68
2024/01/31 02:25:49;;;;;;;25.05;14.15;;;-1.90;99.90;;;;;;5042487;28;20029;-69
2024/01/31 02:28:17;;;;;;;23.35;13.43;;;-1.90;99.90;;;;;;5045268;28;20581;-68
2024/01/31 02:30:43;;;;;;;19.10;11.85;;;-1.80;99.90;;;;;;5040416;28;20064;-68
2024/01/31 02:33:09;;;;;;;18.90;10.93;;;-1.80;99.90;;;;;;5044576;28;20029;-68
2024/01/31 02:35:35;;;;;;;17.17;10.77;;;-1.90;99.90;;;;;;5046309;28;20973;-67
2024/01/31 02:38:01;;;;;;;21.67;11.50;;;-2.00;99.90;;;;;;5043677;28;20486;-67
2024/01/31 02:40:28;;;;;;;17.63;11.52;;;-2.00;99.90;;;;;;5028819;28;20155;-67
2024/01/31 02:42:54;;;;;;;18.42;12.02;;;-2.00;99.90;;;;;;5044285;28;20441;-67
2024/01/31 02:45:20;;;;;;;19.13;11.38;;;-2.00;99.90;;;;;;5035570;28;20327;-67
2024/01/31 02:47:45;;;;;;;18.55;12.63;;;-2.00;99.90;;;;;;5046270;28;20039;-67
2024/01/31 02:50:11;;;;;;;18.95;10.90;;;-2.10;99.90;;;;;;5038231;28;20598;-67
2024/01/31 02:52:36;;;;;;;16.83;10.95;;;-2.10;99.90;;;;;;5044181;28;20036;-68
2024/01/31 02:55:03;;;;;;;18.02;10.95;;;-2.10;99.90;;;;;;5043964;28;20234;-67
2024/01/31 02:57:29;;;;;;;16.38;11.25;;;-2.20;99.90;;;;;;5049634;28;20729;-68
2024/01/31 02:59:55;;;;;;;18.42;11.85;;;-2.20;99.90;;;;;;5048753;28;20037;-68
2024/01/31 03:02:20;;;;;;;19.20;11.60;;;-2.10;99.90;;;;;;5049257;28;20064;-68
2024/01/31 03:04:46;;;;;;;20.35;11.88;;;-2.00;99.90;;;;;;5054288;28;20409;-62
2024/01/31 03:07:12;;;;;;;18.08;12.18;;;-2.00;99.90;;;;;;5046836;28;20123;-63
2024/01/31 03:09:38;;;;;;;17.52;11.18;;;-2.00;99.90;;;;;;5053840;28;20171;-62
2024/01/31 03:12:07;;;;;;;23.45;12.88;;;-2.10;99.90;;;;;;5037826;28;20025;-62
2024/01/31 03:14:33;;;;;;;19.58;12.30;;;-2.20;99.90;;;;;;5049920;28;20405;-62
2024/01/31 03:17:00;;;;;;;21.13;13.07;;;-2.30;99.90;;;;;;5052259;28;20743;-62
2024/01/31 03:19:33;;;;;;;20.98;12.20;;;-2.30;99.90;;;;;;5049962;28;20396;-62
2024/01/31 03:21:58;;;;;;;20.45;13.80;;;-2.40;99.90;;;;;;5049798;28;20025;-62
2024/01/31 03:24:24;;;;;;;20.88;13.27;;;-2.40;99.90;;;;;;5043590;28;20052;-68
2024/01/31 03:26:50;;;;;;;20.15;12.82;;;-2.40;99.90;;;;;;5048022;28;20132;-68
2024/01/31 03:29:16;;;;;;;20.83;13.63;;;-2.40;99.90;;;;;;5046583;28;20043;-68
2024/01/31 03:31:42;;;;;;;20.65;14.30;;;-2.40;99.90;;;;;;5048063;28;20775;-68
2024/01/31 03:34:07;;;;;;;27.38;15.55;;;-2.40;99.90;;;;;;5048246;28;20485;-68
2024/01/31 03:36:33;;;;;;;24.20;14.70;;;-2.50;99.90;;;;;;5048862;28;20098;-67
2024/01/31 03:38:59;;;;;;;23.38;13.48;;;-2.50;99.90;;;;;;5049202;28;20048;-67
2024/01/31 03:41:26;;;;;;;24.73;13.68;;;-2.40;99.90;;;;;;5044443;28;20029;-66
2024/01/31 03:43:51;;;;;;;24.38;14.52;;;-2.40;99.90;;;;;;5046390;28;20036;-66
2024/01/31 03:46:17;;;;;;;25.30;15.45;;;-2.40;99.90;;;;;;5048745;28;20037;-66
2024/01/31 03:48:44;;;;;;;23.30;14.07;;;-2.40;99.90;;;;;;5047267;28;20037;-67
2024/01/31 03:51:23;;;;;;;23.40;14.80;;;-2.40;99.90;;;;;;5049539;28;20107;-67
2024/01/31 03:53:50;;;;;;;24.10;15.25;;;-2.40;99.90;;;;;;5046395;28;20029;-67
2024/01/31 03:56:16;;;;;;;27.92;15.20;;;-2.40;99.90;;;;;;5047391;28;20071;-66
2024/01/31 03:58:42;;;;;;;27.15;17.10;;;-2.40;99.90;;;;;;5047677;28;20327;-67
2024/01/31 04:01:09;;;;;;;27.13;17.05;;;-2.40;99.90;;;;;;5045906;28;20124;-68
2024/01/31 04:03:36;;;;;;;28.25;18.23;;;-2.40;99.90;;;;;;5045779;28;20055;-67
2024/01/31 04:06:02;;;;;;;29.55;17.08;;;-2.40;99.90;;;;;;5048389;28;20143;-67
2024/01/31 04:08:28;;;;;;;29.98;16.20;;;-2.40;99.90;;;;;;5031866;28;20032;-67
2024/01/31 04:10:53;;;;;;;27.20;16.70;;;-2.50;99.90;;;;;;5048154;28;20596;-67
2024/01/31 04:13:19;;;;;;;27.80;16.80;;;-2.50;99.90;;;;;;5044274;28;20037;-67
2024/01/31 04:15:45;;;;;;;23.70;15.50;;;-2.50;99.90;;;;;;5042807;28;20135;-67
2024/01/31 04:18:11;;;;;;;23.50;14.45;;;-2.40;99.90;;;;;;5044492;28;20890;-68
2024/01/31 04:20:40;;;;;;;30.67;17.40;;;-2.40;99.90;;;;;;5047748;28;20067;-68
2024/01/31 04:23:07;;;;;;;28.65;17.20;;;-2.40;99.90;;;;;;5047188;28;20060;-68
2024/01/31 04:25:33;;;;;;;29.15;16.65;;;-2.40;99.90;;;;;;5049827;28;20049;-68
2024/01/31 04:27:58;;;;;;;28.55;16.98;;;-2.50;99.90;;;;;;5052811;28;20028;-69
2024/01/31 04:30:24;;;;;;;36.05;20.00;;;-2.60;99.90;;;;;;5047475;28;20040;-68
2024/01/31 04:32:49;;;;;;;31.17;20.73;;;-2.60;99.90;;;;;;5048487;28;20472;-68
2024/01/31 04:35:15;;;;;;;40.30;23.77;;;-2.60;99.90;;;;;;5049872;28;20082;-68
2024/01/31 04:37:41;;;;;;;32.30;21.10;;;-2.60;99.90;;;;;;5051780;28;20123;-70
2024/01/31 04:40:07;;;;;;;32.85;21.00;;;-2.60;99.90;;;;;;5051842;28;20028;-69
2024/01/31 04:42:33;;;;;;;34.08;19.83;;;-2.60;99.90;;;;;;5053970;28;20062;-70
2024/01/31 04:44:58;;;;;;;32.00;20.35;;;-2.50;99.90;;;;;;5048046;28;20160;-70
2024/01/31 04:47:25;;;;;;;31.60;19.67;;;-2.50;99.90;;;;;;5030728;28;20024;-69
2024/01/31 04:50:03;;;;;;;32.85;20.52;;;-2.50;99.90;;;;;;5044377;28;21460;-69
2024/01/31 04:52:29;;;;;;;33.78;21.30;;;-2.50;99.90;;;;;;5034105;28;20024;-68
2024/01/31 04:54:55;;;;;;;32.85;20.40;;;-2.40;99.90;;;;;;5054324;28;20508;-69
2024/01/31 04:57:21;;;;;;;34.72;21.35;;;-2.50;99.90;;;;;;5051151;28;20047;-69
2024/01/31 04:59:47;;;;;;;35.05;22.58;;;-2.50;99.90;;;;;;5052557;28;20482;-68
2024/01/31 05:02:12;;;;;;;45.58;26.52;;;-2.50;99.90;;;;;;5047716;28;20032;-68
2024/01/31 05:04:42;;;;;;;46.92;27.58;;;-2.50;99.90;;;;;;5046559;28;20032;-68
2024/01/31 05:07:07;;;;;;;45.67;28.65;;;-2.60;99.90;;;;;;5047291;28;20222;-68
2024/01/31 05:09:33;;;;;;;57.97;29.67;;;-2.50;99.90;;;;;;5053591;28;20484;-68
2024/01/31 05:11:58;;;;;;;57.60;30.30;;;-2.50;99.90;;;;;;5055321;28;20024;-69
2024/01/31 05:14:24;;;;;;;67.40;27.55;;;-2.50;99.90;;;;;;5053644;28;20123;-68
2024/01/31 05:16:50;;;;;;;54.30;28.73;;;-2.50;99.90;;;;;;5050334;28;20029;-68
2024/01/31 05:19:16;;;;;;;56.38;29.75;;;-2.50;99.90;;;;;;5043612;28;20055;-68
2024/01/31 05:21:45;;;;;;;62.95;29.23;;;-2.40;99.90;;;;;;5049563;28;20417;-68
2024/01/31 05:24:11;;;;;;;69.65;30.10;;;-2.20;99.90;;;;;;5037842;28;20036;-68
2024/01/31 05:26:37;;;;;;;72.28;31.13;;;-2.10;99.90;;;;;;5050898;28;20560;-68
2024/01/31 05:29:03;;;;;;;76.90;30.50;;;-2.00;99.90;;;;;;5051760;28;20045;-68
2024/01/31 05:31:28;;;;;;;99.50;32.40;;;-2.00;99.90;;;;;;5048344;28;20021;-68
2024/01/31 05:33:54;;;;;;;72.55;30.92;;;-1.90;99.90;;;;;;5049002;28;20115;-68
2024/01/31 05:36:19;;;;;;;73.60;31.00;;;-1.90;99.90;;;;;;5048081;28;20111;-68
2024/01/31 05:38:45;;;;;;;102.93;30.60;;;-1.90;99.90;;;;;;5048724;28;20032;-67
2024/01/31 05:41:12;;;;;;;135.82;32.22;;;-1.80;99.90;;;;;;5052116;28;20591;-68
2024/01/31 05:43:38;;;;;;;87.07;31.67;;;-1.80;99.90;;;;;;5049344;28;20029;-68
2024/01/31 05:46:03;;;;;;;91.60;30.50;;;-1.80;99.90;;;;;;5049123;28;20043;-67
2024/01/31 05:48:29;;;;;;;87.75;30.70;;;-1.70;99.90;;;;;;5051522;28;20036;-68
2024/01/31 05:50:54;;;;;;;87.70;26.50;;;-1.70;99.90;;;;;;5050729;28;20052;-67
2024/01/31 05:53:20;;;;;;;107.53;26.30;;;-1.70;99.90;;;;;;5047938;28;20490;-68
2024/01/31 05:55:46;;;;;;;113.45;24.38;;;-1.70;99.90;;;;;;5046738;28;20036;-67
2024/01/31 05:58:11;;;;;;;101.43;21.42;;;-1.80;99.90;;;;;;5047339;28;20043;-67
2024/01/31 06:00:37;;;;;;;78.05;21.23;;;-1.80;99.90;;;;;;5048212;28;20032;-67
2024/01/31 06:03:03;;;;;;;60.83;19.80;;;-1.90;99.90;;;;;;5050818;28;20033;-68
2024/01/31 06:05:29;;;;;;;88.13;26.80;;;-1.80;99.90;;;;;;5046410;28;20113;-68
2024/01/31 06:07:54;;;;;;;103.57;25.55;;;-1.80;99.90;;;;;;5044157;28;20814;-67
2024/01/31 06:10:20;;;;;;;111.85;21.95;;;-1.70;99.90;;;;;;5051402;28;20056;-67
2024/01/31 06:12:46;;;;;;;103.80;19.45;;;-1.70;99.90;;;;;;5051199;28;20036;-67
2024/01/31 06:15:12;;;;;;;65.05;18.20;;;-1.80;99.90;;;;;;5049716;28;20512;-67
2024/01/31 06:17:38;;;;;;;89.97;18.17;;;-1.90;99.90;;;;;;5047816;28;20046;-67
2024/01/31 06:20:04;;;;;;;73.65;20.40;;;-1.80;99.90;;;;;;5046686;28;20148;-67
2024/01/31 06:22:30;;;;;;;55.42;22.33;;;-1.90;99.90;;;;;;5042531;28;20358;-67
2024/01/31 06:24:56;;;;;;;69.45;21.85;;;-1.90;99.90;;;;;;5039275;28;20048;-67
2024/01/31 06:27:22;;;;;;;68.78;20.27;;;-1.90;99.90;;;;;;5044658;28;20087;-68
2024/01/31 06:29:47;;;;;;;75.82;19.80;;;-2.00;99.90;;;;;;5036970;28;20095;-66
2024/01/31 06:32:20;;;;;;;67.88;20.73;;;-2.10;99.90;;;;;;5046310;28;20033;-68
2024/01/31 06:34:46;;;;;;;52.17;19.42;;;-2.00;99.90;;;;;;5037014;28;20163;-68
2024/01/31 06:37:12;;;;;;;48.53;18.40;;;-1.90;99.90;;;;;;5046887;28;20025;-68
2024/01/31 06:39:37;;;;;;;62.65;20.25;;;-1.90;99.90;;;;;;5045896;28;20673;-69
2024/01/31 06:42:03;;;;;;;64.90;21.48;;;-2.00;99.90;;;;;;5048873;28;20048;-68
2024/01/31 06:44:29;;;;;;;48.03;18.10;;;-2.10;99.90;;;;;;5045144;28;21807;-68
2024/01/31 06:46:54;;;;;;;75.75;27.80;;;-2.10;99.90;;;;;;5053043;28;20620;-69
2024/01/31 06:49:20;;;;;;;84.38;34.20;;;-2.10;99.90;;;;;;5054419;28;20041;-68
2024/01/31 06:51:46;;;;;;;98.03;39.10;;;-2.10;99.90;;;;;;5050730;28;20036;-68
2024/01/31 06:54:14;;;;;;;90.60;39.15;;;-2.10;99.90;;;;;;5037228;28;20440;-68
2024/01/31 06:56:39;;;;;;;90.03;40.92;;;-2.10;99.90;;;;;;5053325;28;20027;-68
2024/01/31 06:59:05;;;;;;;83.90;36.38;;;-2.00;99.90;;;;;;5051689;28;20029;-68
2024/01/31 07:01:31;;;;;;;73.72;33.58;;;-1.90;99.90;;;;;;5051878;28;20785;-68
2024/01/31 07:03:56;;;;;;;79.57;35.58;;;-1.90;99.90;;;;;;5046917;28;20035;-67
2024/01/31 07:06:22;;;;;;;69.93;31.20;;;-1.90;99.90;;;;;;5054752;28;20037;-68
2024/01/31 07:08:47;;;;;;;69.22;32.80;;;-1.90;99.90;;;;;;5054180;28;20377;-68
2024/01/31 07:11:13;;;;;;;57.15;27.73;;;-1.80;99.90;;;;;;5054260;28;20134;-68
2024/01/31 07:13:42;;;;;;;78.20;39.80;;;-1.70;99.90;;;;;;5053708;28;20040;-68
2024/01/31 07:16:09;;;;;;;83.05;37.55;;;-1.60;99.90;;;;;;5056819;28;20642;-68
2024/01/31 07:18:45;;;;;;;62.90;34.22;;;-1.50;99.90;;;;;;5046203;28;20566;-68
2024/01/31 07:21:22;;;;;;;75.50;34.08;;;-1.50;99.90;;;;;;5056744;28;20044;-68
2024/01/31 07:23:47;;;;;;;91.60;36.75;;;-1.50;99.90;;;;;;5056124;28;20048;-65
2024/01/31 07:26:24;;;;;;;93.40;39.72;;;-1.50;99.90;;;;;;5051329;28;20163;-66
2024/01/31 07:28:50;;;;;;;97.07;42.33;;;-1.50;99.90;;;;;;5054096;28;20151;-65
2024/01/31 07:31:16;;;;;;;94.25;43.63;;;-1.40;99.90;;;;;;5055701;28;20058;-67
2024/01/31 07:33:41;;;;;;;88.47;42.88;;;-1.40;99.90;;;;;;5056380;28;20301;-66
2024/01/31 07:36:07;;;;;;;89.53;44.25;;;-1.40;99.90;;;;;;5051127;28;20134;-66
2024/01/31 07:38:33;;;;;;;78.05;41.47;;;-1.30;99.90;;;;;;5050871;28;20598;-66
2024/01/31 07:40:58;;;;;;;63.22;33.33;;;-1.10;99.90;;;;;;5052619;28;20040;-65
2024/01/31 07:43:24;;;;;;;64.78;30.63;;;-1.00;99.90;;;;;;5043074;28;20128;-66
2024/01/31 07:45:50;;;;;;;52.67;28.42;;;-0.90;99.90;;;;;;5052961;28;20045;-67
2024/01/31 07:48:15;;;;;;;54.45;28.00;;;-0.90;99.90;;;;;;5046625;28;20495;-66
2024/01/31 07:50:41;;;;;;;51.45;27.70;;;-0.90;99.90;;;;;;5054218;28;20092;-66
2024/01/31 07:53:06;;;;;;;38.35;22.10;;;-0.80;99.90;;;;;;5049732;28;20016;-67
2024/01/31 07:55:32;;;;;;;36.58;21.73;;;-0.80;99.90;;;;;;5051980;28;20046;-66
2024/01/31 07:57:58;;;;;;;34.38;20.92;;;-0.70;99.90;;;;;;5056196;28;20025;-67
2024/01/31 08:00:24;;;;;;;33.70;21.25;;;-0.60;99.90;;;;;;5052832;28;20511;-66
2024/01/31 08:02:49;;;;;;;34.08;20.50;;;-0.50;99.90;;;;;;5047959;28;20024;-66
2024/01/31 08:05:15;;;;;;;49.83;31.60;;;-0.50;99.90;;;;;;5049356;28;20092;-66
2024/01/31 08:07:44;;;;;;;36.63;21.80;;;-0.40;99.90;;;;;;5048177;28;20031;-66
2024/01/31 08:10:12;;;;;;;36.63;21.92;;;-0.30;99.90;;;;;;5052246;28;20113;-66
2024/01/31 08:12:37;;;;;;;32.65;20.45;;;-0.20;99.90;;;;;;5055386;28;20109;-65
2024/01/31 08:15:03;;;;;;;56.83;25.63;;;0.00;99.90;;;;;;5045529;28;20108;-66
2024/01/31 08:17:29;;;;;;;42.15;23.40;;;0.10;99.90;;;;;;5045051;28;20432;-66
2024/01/31 08:19:55;;;;;;;41.83;25.00;;;0.20;99.90;;;;;;5042384;28;20059;-65
2024/01/31 08:22:20;;;;;;;40.63;24.65;;;0.30;99.90;;;;;;5054622;28;20071;-66
2024/01/31 08:24:46;;;;;;;39.17;22.90;;;0.30;99.90;;;;;;5051980;28;20143;-66
2024/01/31 08:27:11;;;;;;;38.20;20.98;;;0.40;99.90;;;;;;5055295;28;20037;-66
2024/01/31 08:29:38;;;;;;;34.72;22.08;;;0.50;99.90;;;;;;5051068;28;20094;-66
2024/01/31 08:32:04;;;;;;;34.97;21.10;;;0.70;99.90;;;;;;5054630;28;20025;-66
2024/01/31 08:34:29;;;;;;;31.58;20.10;;;0.70;99.90;;;;;;5045337;28;20042;-64
2024/01/31 08:36:55;;;;;;;30.27;19.60;;;0.80;99.90;;;;;;5039998;28;20112;-64
2024/01/31 08:39:22;;;;;;;34.33;20.90;;;0.80;99.90;;;;;;5050396;28;20032;-64
2024/01/31 08:41:48;;;;;;;35.97;20.70;;;0.80;99.90;;;;;;5051371;28;20448;-64
2024/01/31 08:44:15;;;;;;;38.47;23.80;;;0.90;99.90;;;;;;5054376;28;20036;-64
2024/01/31 08:46:41;;;;;;;37.85;23.63;;;0.90;99.90;;;;;;5036660;28;20556;-65
2024/01/31 08:49:06;;;;;;;41.90;26.85;;;0.90;99.90;;;;;;5051461;28;20043;-66
2024/01/31 08:51:33;;;;;;;46.47;26.63;;;0.90;99.90;;;;;;5049772;28;20117;-65
2024/01/31 08:53:59;;;;;;;47.40;28.90;;;1.00;99.90;;;;;;5044963;28;20039;-65
2024/01/31 08:56:24;;;;;;;47.78;27.17;;;1.00;99.90;;;;;;5048358;28;20086;-65
2024/01/31 08:58:50;;;;;;;43.15;26.77;;;1.10;99.90;;;;;;5047773;28;20440;-65
2024/01/31 09:01:15;;;;;;;45.78;28.92;;;1.10;99.90;;;;;;5047078;28;20040;-65
2024/01/31 09:03:41;;;;;;;41.88;28.30;;;1.20;99.90;;;;;;5051486;28;20759;-65
2024/01/31 09:06:07;;;;;;;41.35;25.90;;;1.20;99.90;;;;;;5048313;28;20136;-65
2024/01/31 09:08:32;;;;;;;40.95;26.38;;;1.30;99.90;;;;;;5048111;28;20032;-65
2024/01/31 09:10:58;;;;;;;45.50;25.52;;;1.40;99.90;;;;;;5051896;28;20127;-66
2024/01/31 09:13:24;;;;;;;39.85;24.05;;;1.50;99.90;;;;;;5043643;28;20437;-66
2024/01/31 09:15:50;;;;;;;33.05;21.38;;;1.60;99.90;;;;;;5046144;28;20457;-65
2024/01/31 09:18:15;;;;;;;36.63;22.58;;;1.70;99.90;;;;;;5047612;28;20032;-65
2024/01/31 09:20:41;;;;;;;32.15;20.60;;;1.70;99.90;;;;;;5039763;28;20925;-66
2024/01/31 09:23:06;;;;;;;34.10;22.23;;;1.80;99.90;;;;;;5047604;28;20032;-66
2024/01/31 09:25:33;;;;;;;30.63;20.55;;;1.90;99.90;;;;;;5034434;28;20507;-66
2024/01/31 09:27:58;;;;;;;30.20;19.70;;;2.00;99.90;;;;;;5041101;28;20050;-66
2024/01/31 09:30:24;;;;;;;31.70;21.23;;;2.00;99.90;;;;;;5047040;28;20036;-66
2024/01/31 09:32:50;;;;;;;29.77;19.70;;;2.10;99.90;;;;;;5050181;28;20032;-65
2024/01/31 09:35:15;;;;;;;27.67;19.13;;;2.20;99.90;;;;;;5034170;28;20036;-66
2024/01/31 09:37:41;;;;;;;28.27;19.20;;;2.20;99.90;;;;;;5049130;28;20118;-66
2024/01/31 09:40:08;;;;;;;25.90;18.92;;;2.30;99.90;;;;;;5050614;28;20040;-65
2024/01/31 09:42:33;;;;;;;28.88;18.80;;;2.30;99.90;;;;;;5049375;28;20021;-66
2024/01/31 09:45:01;;;;;;;35.13;21.77;;;2.40;99.90;;;;;;5047688;28;20047;-65
2024/01/31 09:47:28;;;;;;;29.90;19.83;;;2.50;99.90;;;;;;5041294;28;20105;-66
2024/01/31 09:49:57;;;;;;;29.70;19.15;;;2.50;99.90;;;;;;5046989;28;20016;-66
2024/01/31 09:52:28;;;;;;;29.13;19.48;;;2.60;99.90;;;;;;5046843;28;20039;-66
2024/01/31 09:55:00;;;;;;;25.58;18.73;;;2.70;99.90;;;;;;5046906;28;20511;-65
2024/01/31 09:57:27;;;;;;;27.52;18.45;;;2.70;99.90;;;;;;5049032;28;20505;-66
2024/01/31 09:59:56;;;;;;;26.85;18.70;;;2.80;99.90;;;;;;5037708;28;20039;-65
2024/01/31 10:02:22;;;;;;;27.23;17.98;;;2.90;99.90;;;;;;5051851;28;20143;-65
2024/01/31 10:04:49;;;;;;;28.77;19.08;;;2.90;99.90;;;;;;5044233;28;20048;-65
2024/01/31 10:07:23;;;;;;;29.75;20.15;;;2.90;99.90;;;;;;5045536;28;21916;-65
2024/01/31 10:09:49;;;;;;;26.15;17.98;;;3.00;99.90;;;;;;5050653;28;20040;-66
2024/01/31 10:12:17;;;;;;;27.33;17.92;;;3.00;99.90;;;;;;5051432;28;20043;-66
2024/01/31 10:14:43;;;;;;;25.77;18.50;;;3.10;99.90;;;;;;5042099;28;20041;-67
2024/01/31 10:17:09;;;;;;;26.48;18.73;;;3.00;99.90;;;;;;5046220;28;20032;-66
2024/01/31 10:19:35;;;;;;;28.10;19.00;;;3.00;99.90;;;;;;5042756;28;20060;-66
2024/01/31 10:22:00;;;;;;;24.75;18.48;;;3.10;99.90;;;;;;5049966;28;20020;-66
2024/01/31 10:24:26;;;;;;;27.98;19.45;;;3.10;99.90;;;;;;5048379;28;20045;-66
2024/01/31 10:26:52;;;;;;;27.48;19.08;;;3.10;99.90;;;;;;5054554;28;20040;-66
2024/01/31 10:29:18;;;;;;;26.20;18.73;;;3.10;99.90;;;;;;5048290;28;20036;-67
2024/01/31 10:31:46;;;;;;;25.75;17.80;;;3.10;99.90;;;;;;5050829;28;20025;-66
2024/01/31 10:34:13;;;;;;;29.15;19.27;;;3.10;99.90;;;;;;5050486;28;20139;-66
2024/01/31 10:36:40;;;;;;;30.73;19.92;;;3.20;99.90;;;;;;5049142;28;20029;-66
2024/01/31 10:39:11;;;;;;;29.63;18.40;;;3.20;99.90;;;;;;5049012;28;20076;-66
2024/01/31 10:41:40;;;;;;;26.30;19.57;;;3.40;99.90;;;;;;5047271;28;20038;-66
2024/01/31 10:44:10;;;;;;;32.42;20.70;;;3.50;99.90;;;;;;5051690;28;20309;-66
2024/01/31 10:46:36;;;;;;;30.45;19.40;;;3.60;99.90;;;;;;5045338;28;20032;-68
2024/01/31 10:49:02;;;;;;;30.63;20.00;;;3.70;99.90;;;;;;5050756;28;20048;-69
2024/01/31 10:51:30;;;;;;;28.42;19.40;;;3.70;99.90;;;;;;5051363;28;20059;-68
2024/01/31 10:53:56;;;;;;;28.63;19.90;;;3.80;99.90;;;;;;5032042;28;20204;-68
2024/01/31 10:56:24;;;;;;;26.33;17.80;;;4.00;99.90;;;;;;5048846;28;20043;-68
2024/01/31 10:58:51;;;;;;;25.83;17.25;;;4.20;99.90;;;;;;5051820;28;20554;-68
2024/01/31 11:01:17;;;;;;;25.33;17.92;;;4.30;99.90;;;;;;5042252;28;20029;-68
2024/01/31 11:03:46;;;;;;;23.88;15.80;;;4.40;99.90;;;;;;5038912;28;21415;-69
2024/01/31 11:06:11;;;;;;;20.35;14.85;;;4.60;99.90;;;;;;5046749;28;20039;-68
2024/01/31 11:08:40;;;;;;;23.20;15.80;;;4.70;99.90;;;;;;5053193;28;20036;-69
2024/01/31 11:11:12;;;;;;;25.58;16.55;;;4.80;99.90;;;;;;5039786;28;20029;-68
2024/01/31 11:13:38;;;;;;;23.05;15.93;;;4.90;99.90;;;;;;5045958;28;20024;-68
2024/01/31 11:16:04;;;;;;;23.42;16.63;;;4.90;99.90;;;;;;5045764;28;20020;-68
2024/01/31 11:18:31;;;;;;;20.00;15.60;;;4.90;99.90;;;;;;5054648;28;20041;-68
2024/01/31 11:21:05;;;;;;;24.05;15.82;;;4.90;99.90;;;;;;5053568;28;20319;-69
2024/01/31 11:23:31;;;;;;;21.30;15.20;;;5.00;99.90;;;;;;5052748;28;20538;-69
2024/01/31 11:26:00;;;;;;;21.33;15.75;;;5.10;99.90;;;;;;5055593;28;20056;-69
2024/01/31 11:28:27;;;;;;;22.33;15.52;;;5.20;99.90;;;;;;5048684;28;20036;-69
2024/01/31 11:30:52;;;;;;;23.13;15.45;;;5.10;99.90;;;;;;5053455;28;20063;-69
2024/01/31 11:33:19;;;;;;;27.35;15.00;;;5.10;99.90;;;;;;5049621;28;21531;-68
2024/01/31 11:35:45;;;;;;;39.70;16.55;;;5.20;99.90;;;;;;5036627;28;20028;-69
2024/01/31 11:38:12;;;;;;;23.38;16.35;;;5.30;99.90;;;;;;5043945;28;20115;-68
2024/01/31 11:40:38;;;;;;;23.52;16.70;;;5.40;99.90;;;;;;5046838;28;20596;-68
2024/01/31 11:43:05;;;;;;;23.60;16.17;;;5.50;99.90;;;;;;5050773;28;20048;-69
2024/01/31 11:45:30;;;;;;;24.75;15.45;;;5.50;99.90;;;;;;5044432;28;20037;-68
2024/01/31 11:47:57;;;;;;;24.50;15.63;;;5.60;99.90;;;;;;5051065;28;20139;-68
2024/01/31 11:50:25;;;;;;;21.48;15.75;;;5.70;99.90;;;;;;5051591;28;20036;-68
2024/01/31 11:52:52;;;;;;;21.67;16.13;;;5.80;99.90;;;;;;5054206;28;20028;-68
2024/01/31 11:55:29;;;;;;;26.20;20.00;;;5.80;99.90;;;;;;5052705;28;20126;-68
2024/01/31 11:57:55;;;;;;;25.25;18.42;;;5.90;99.90;;;;;;5053531;28;20032;-68
2024/01/31 12:00:21;;;;;;;25.45;18.92;;;6.00;99.90;;;;;;5051544;28;20558;-68
2024/01/31 12:02:47;;;;;;;22.88;16.58;;;6.00;99.90;;;;;;5052376;28;20035;-69
2024/01/31 12:05:13;;;;;;;21.55;15.80;;;6.00;99.90;;;;;;5049156;28;20036;-68
2024/01/31 12:07:39;;;;;;;20.02;15.60;;;6.00;99.90;;;;;;5049999;28;20060;-67
2024/01/31 12:10:08;;;;;;;21.65;14.93;;;6.00;99.90;;;;;;5050243;28;20090;-68
2024/01/31 12:12:41;;;;;;;25.75;14.18;;;6.00;99.90;;;;;;5044098;28;20038;-67
2024/01/31 12:15:09;;;;;;;17.95;12.68;;;6.00;99.90;;;;;;5048364;28;20033;-69
2024/01/31 12:17:35;;;;;;;17.17;12.20;;;6.10;99.90;;;;;;5045949;28;20025;-69
2024/01/31 12:20:10;;;;;;;17.25;13.10;;;6.10;99.90;;;;;;5047766;28;20772;-67
2024/01/31 12:22:37;;;;;;;18.65;13.15;;;6.10;99.90;;;;;;5053449;28;20144;-68
2024/01/31 12:25:04;;;;;;;23.27;14.85;;;6.10;99.90;;;;;;5043840;28;20467;-67
2024/01/31 12:27:30;;;;;;;17.85;12.80;;;6.20;99.90;;;;;;5054041;28;20028;-67